createdAt,value
2018-07-08T00:00:50.541Z,83.3
2018-07-08T00:02:50.742Z,83.3
2018-07-08T00:04:50.218Z,80.9
2018-07-08T00:06:50.569Z,80.7
2018-07-08T00:08:50.645Z,84.1
2018-07-08T00:10:50.777Z,82.8
2018-07-08T00:12:50.936Z,83.4
2018-07-08T00:14:50.125Z,83.4
2018-07-08T00:16:50.370Z,83.6
2018-07-08T00:18:50.580Z,83.6
2018-07-08T00:20:50.718Z,82.2
2018-07-08T00:22:50.828Z,82.0
2018-07-08T00:24:50.074Z,82.0
2018-07-08T00:26:50.467Z,83.2
2018-07-08T00:28:50.611Z,82.6
2018-07-08T00:30:50.856Z,79.5
2018-07-08T00:32:50.120Z,78.1
2018-07-08T00:34:50.535Z,78.6
2018-07-08T00:36:50.929Z,79.8
2018-07-08T00:38:50.047Z,81.0
2018-07-08T00:40:50.280Z,81.6
2018-07-08T00:42:50.588Z,81.7
2018-07-08T00:44:50.694Z,82.5
2018-07-08T00:46:50.251Z,82.5
2018-07-08T00:48:50.362Z,85.0
2018-07-08T00:50:50.492Z,85.0
2018-07-08T00:52:50.613Z,84.4
2018-07-08T00:54:50.751Z,84.7
2018-07-08T00:56:50.123Z,84.7
2018-07-08T00:58:50.247Z,86.7
2018-07-08T01:00:50.502Z,86.5
2018-07-08T01:02:50.640Z,86.0
2018-07-08T01:04:50.070Z,86.6
2018-07-08T01:06:50.243Z,87.1
2018-07-08T01:08:51.302Z,87.7
2018-07-08T01:10:50.539Z,86.0
2018-07-08T01:12:50.693Z,86.9
2018-07-08T01:14:50.812Z,86.2
2018-07-08T01:16:50.079Z,86.5
2018-07-08T01:18:50.189Z,87.0
2018-07-08T01:20:50.386Z,89.2
2018-07-08T01:22:50.574Z,88.5
2018-07-08T01:24:50.763Z,87.5
2018-07-08T01:26:50.122Z,87.6
2018-07-08T01:28:50.257Z,87.5
2018-07-08T01:30:50.439Z,88.9
2018-07-08T01:32:50.684Z,88.8
2018-07-08T01:34:50.344Z,88.9
2018-07-08T01:36:50.782Z,89.0
2018-07-08T01:38:50.902Z,89.8
2018-07-08T01:40:50.156Z,88.1
2018-07-08T01:42:50.502Z,88.7
2018-07-08T01:44:50.655Z,89.0
2018-07-08T01:46:50.062Z,89.6
2018-07-08T01:48:50.170Z,90.2
2018-07-08T01:50:50.418Z,89.6
2018-07-08T01:52:50.667Z,90.5
2018-07-08T01:54:50.845Z,91.2
2018-07-08T01:56:50.314Z,91.2
2018-07-08T01:58:50.440Z,90.5
2018-07-08T02:00:50.648Z,91.6
2018-07-08T02:02:50.794Z,91.1
2018-07-08T02:04:50.196Z,91.3
2018-07-08T02:06:50.600Z,91.3
2018-07-08T02:08:50.943Z,91.5
2018-07-08T02:10:50.188Z,92.4
2018-07-08T02:12:50.313Z,90.3
2018-07-08T02:14:50.503Z,90.5
2018-07-08T02:16:50.950Z,89.9
2018-07-08T02:18:50.300Z,90.7
2018-07-08T02:20:50.529Z,91.3
2018-07-08T02:22:50.690Z,91.4
2018-07-08T02:24:50.851Z,92.2
2018-07-08T02:26:50.376Z,92.1
2018-07-08T02:28:50.494Z,91.8
2018-07-08T02:30:50.631Z,90.9
2018-07-08T02:32:50.857Z,90.7
2018-07-08T02:34:50.407Z,91.3
2018-07-08T02:36:50.900Z,91.4
2018-07-08T02:38:50.027Z,92.7
2018-07-08T02:40:50.259Z,92.1
2018-07-08T02:42:50.570Z,92.4
2018-07-08T02:44:50.739Z,91.5
2018-07-08T02:46:50.158Z,90.9
2018-07-08T02:48:50.327Z,92.6
2018-07-08T02:50:50.490Z,92.3
2018-07-08T02:52:50.689Z,91.5
2018-07-08T02:54:50.803Z,91.7
2018-07-08T02:56:50.182Z,91.8
2018-07-08T02:58:50.342Z,90.6
2018-07-08T03:00:50.473Z,90.2
2018-07-08T03:02:50.574Z,91.2
2018-07-08T03:04:50.089Z,90.6
2018-07-08T03:06:50.432Z,90.4
2018-07-08T03:08:50.519Z,90.2
2018-07-08T03:10:50.705Z,89.7
2018-07-08T03:12:50.884Z,89.3
2018-07-08T03:14:50.093Z,88.0
2018-07-08T03:16:50.279Z,88.7
2018-07-08T03:18:50.788Z,90.7
2018-07-08T03:20:50.961Z,88.9
2018-07-08T03:22:50.254Z,88.9
2018-07-08T03:24:50.419Z,89.8
2018-07-08T03:26:50.767Z,90.2
2018-07-08T03:28:50.014Z,89.7
2018-07-08T03:30:50.146Z,90.9
2018-07-08T03:32:50.332Z,91.3
2018-07-08T03:34:50.646Z,90.7
2018-07-08T03:36:50.927Z,90.4
2018-07-08T03:38:50.073Z,90.2
2018-07-08T03:40:50.220Z,91.9
2018-07-08T03:42:50.537Z,91.2
2018-07-08T03:44:50.647Z,91.1
2018-07-08T03:46:49.971Z,91.1
2018-07-08T03:48:50.145Z,91.2
2018-07-08T03:50:50.337Z,91.8
2018-07-08T03:52:50.505Z,91.9
2018-07-08T03:54:50.704Z,91.1
2018-07-08T03:56:50.134Z,90.4
2018-07-08T03:58:50.325Z,90.5
2018-07-08T04:00:50.455Z,90.3
2018-07-08T04:02:50.593Z,90.3
2018-07-08T04:04:50.108Z,90.6
2018-07-08T04:06:50.712Z,91.8
2018-07-08T04:08:50.893Z,90.8
2018-07-08T04:10:50.061Z,90.5
2018-07-08T04:12:50.277Z,90.1
2018-07-08T04:14:50.439Z,89.1
2018-07-08T04:16:50.774Z,88.7
2018-07-08T04:18:49.979Z,86.4
2018-07-08T04:20:50.146Z,86.5
2018-07-08T04:22:50.267Z,85.9
2018-07-08T04:24:50.522Z,84.4
2018-07-08T04:26:50.803Z,84.1
2018-07-08T04:28:50.110Z,83.4
2018-07-08T04:30:50.208Z,83.4
2018-07-08T04:32:50.297Z,83.1
2018-07-08T04:34:50.829Z,83.5
2018-07-08T04:36:50.141Z,82.8
2018-07-08T04:38:50.307Z,81.9
2018-07-08T04:40:50.458Z,82.3
2018-07-08T04:42:50.577Z,81.6
2018-07-08T04:44:50.705Z,81.8
2018-07-08T04:46:50.029Z,82.4
2018-07-08T04:48:50.182Z,81.4
2018-07-08T04:50:50.503Z,81.3
2018-07-08T04:52:50.692Z,81.7
2018-07-08T04:54:50.027Z,81.1
2018-07-08T04:56:50.388Z,81.0
2018-07-08T04:58:50.450Z,80.8
2018-07-08T05:00:50.881Z,80.4
2018-07-08T05:02:50.136Z,80.5
2018-07-08T05:04:50.665Z,80.4
2018-07-08T05:06:50.937Z,80.1
2018-07-08T05:08:50.036Z,80.1
2018-07-08T05:10:50.260Z,80.0
2018-07-08T05:12:50.494Z,79.3
2018-07-08T05:14:50.595Z,78.7
2018-07-08T05:16:50.841Z,78.6
2018-07-08T05:18:50.951Z,78.4
2018-07-08T05:20:50.159Z,77.7
2018-07-08T05:22:50.320Z,76.9
2018-07-08T05:24:50.420Z,76.4
2018-07-08T05:26:50.840Z,75.2
2018-07-08T05:28:49.976Z,74.5
2018-07-08T05:30:50.262Z,74.9
2018-07-08T05:32:50.425Z,74.2
2018-07-08T05:34:50.990Z,73.5
2018-07-08T05:36:50.878Z,72.7
2018-07-08T05:38:50.125Z,72.7
2018-07-08T05:40:50.269Z,72.2
2018-07-08T05:42:50.410Z,71.7
2018-07-08T05:44:50.552Z,72.0
2018-07-08T05:46:50.867Z,71.3
2018-07-08T05:48:50.095Z,69.2
2018-07-08T05:50:50.426Z,68.9
2018-07-08T05:52:50.594Z,70.0
2018-07-08T05:54:49.983Z,69.3
2018-07-08T05:56:50.552Z,68.9
2018-07-08T05:58:50.669Z,69.2
2018-07-08T06:00:50.899Z,68.5
2018-07-08T06:02:50.088Z,67.6
2018-07-08T06:04:50.529Z,67.6
2018-07-08T06:06:50.987Z,67.8
2018-07-08T06:08:50.267Z,68.0
2018-07-08T06:10:50.507Z,67.4
2018-07-08T06:12:50.690Z,67.7
2018-07-08T06:14:50.856Z,69.2
2018-07-08T06:16:50.441Z,67.4
2018-07-08T06:18:50.682Z,67.3
2018-07-08T06:20:49.994Z,67.5
2018-07-08T06:22:50.290Z,68.1
2018-07-08T06:24:50.588Z,67.6
2018-07-08T06:26:50.019Z,68.0
2018-07-08T06:28:50.166Z,66.5
2018-07-08T06:30:50.333Z,67.7
2018-07-08T06:32:50.506Z,67.4
2018-07-08T06:34:50.900Z,66.4
2018-07-08T06:36:50.358Z,66.2
2018-07-08T06:38:50.526Z,66.5
2018-07-08T06:40:50.740Z,66.7
2018-07-08T06:42:50.867Z,66.7
2018-07-08T06:44:50.230Z,66.8
2018-07-08T06:46:50.572Z,65.9
2018-07-08T06:48:50.770Z,66.6
2018-07-08T06:50:50.930Z,66.2
2018-07-08T06:52:50.342Z,66.7
2018-07-08T06:54:50.577Z,65.8
2018-07-08T06:56:50.880Z,66.1
2018-07-08T06:58:50.044Z,65.3
2018-07-08T07:00:50.290Z,65.1
2018-07-08T07:02:50.543Z,65.9
2018-07-08T07:04:49.973Z,62.8
2018-07-08T07:06:51.096Z,62.8
2018-07-08T07:08:50.362Z,61.7
2018-07-08T07:10:50.565Z,61.7
2018-07-08T07:12:50.725Z,60.5
2018-07-08T07:14:50.861Z,60.5
2018-07-08T07:16:50.215Z,61.2
2018-07-08T07:18:50.333Z,60.0
2018-07-08T07:20:50.580Z,59.9
2018-07-08T07:22:50.715Z,59.8
2018-07-08T07:24:50.888Z,61.0
2018-07-08T07:26:50.187Z,60.7
2018-07-08T07:28:50.353Z,60.4
2018-07-08T07:30:50.545Z,59.4
2018-07-08T07:32:50.774Z,59.3
2018-07-08T07:34:50.345Z,59.3
2018-07-08T07:36:50.625Z,58.5
2018-07-08T07:38:50.821Z,59.0
2018-07-08T07:40:49.992Z,58.7
2018-07-08T07:42:50.139Z,59
2018-07-08T07:44:50.324Z,58
2018-07-08T07:46:50.650Z,58
2018-07-08T07:48:50.753Z,58
2018-07-08T07:50:50.862Z,58
2018-07-08T07:52:50.144Z,58
2018-07-08T07:54:50.320Z,58
2018-07-08T07:56:50.622Z,57
2018-07-08T07:58:50.786Z,57
2018-07-08T08:00:50.105Z,57
2018-07-08T08:02:50.295Z,57
2018-07-08T08:04:50.715Z,56
2018-07-08T08:06:50.068Z,55
2018-07-08T08:08:50.201Z,55
2018-07-08T08:10:51.154Z,55
2018-07-08T08:12:50.374Z,55
2018-07-08T08:14:50.522Z,54
2018-07-08T08:16:50.882Z,54
2018-07-08T08:18:50.049Z,54
2018-07-08T08:20:50.153Z,50.7
2018-07-08T08:22:50.284Z,54
2018-07-08T08:24:50.577Z,53
2018-07-08T08:26:51.642Z,53
2018-07-08T08:28:50.810Z,52
2018-07-08T08:30:50.025Z,53
2018-07-08T08:32:51.247Z,51
2018-07-08T08:34:50.758Z,50
2018-07-08T08:36:50.032Z,50
2018-07-08T08:38:50.270Z,49
2018-07-08T08:40:50.413Z,48
2018-07-08T08:42:50.656Z,48
2018-07-08T08:44:50.881Z,48
2018-07-08T08:46:50.281Z,47
2018-07-08T08:48:50.419Z,47
2018-07-08T08:50:50.599Z,47
2018-07-08T08:52:50.038Z,48
2018-07-08T08:54:50.239Z,48
2018-07-08T08:56:50.635Z,48
2018-07-08T08:58:50.870Z,48
2018-07-08T09:00:50.089Z,49
2018-07-08T09:02:50.284Z,49
2018-07-08T09:04:50.798Z,48
2018-07-08T09:06:50.228Z,48
2018-07-08T09:08:50.343Z,49
2018-07-08T09:10:51.063Z,48
2018-07-08T09:12:50.306Z,48
2018-07-08T09:14:50.422Z,48
2018-07-08T09:16:50.775Z,48
2018-07-08T09:18:50.093Z,48
2018-07-08T09:20:50.251Z,48
2018-07-08T09:22:50.406Z,48
2018-07-08T09:24:50.574Z,48
2018-07-08T09:26:50.957Z,48
2018-07-08T09:28:50.149Z,46
2018-07-08T09:30:50.388Z,45
2018-07-08T09:32:50.814Z,45
2018-07-08T09:34:50.190Z,41
2018-07-08T09:36:50.494Z,39
2018-07-08T09:38:51.690Z,38
2018-07-08T09:40:50.005Z,37
2018-07-08T09:42:50.190Z,37
2018-07-08T09:44:50.346Z,36
2018-07-08T09:46:50.725Z,35
2018-07-08T09:48:49.973Z,35
2018-07-08T09:50:50.276Z,35
2018-07-08T09:52:50.455Z,35
2018-07-08T09:54:50.588Z,36
2018-07-08T09:56:50.899Z,36
2018-07-08T09:58:50.067Z,36
2018-07-08T10:00:50.182Z,36
2018-07-08T10:02:50.410Z,37
2018-07-08T10:04:51.312Z,36
2018-07-08T10:06:50.761Z,35
2018-07-08T10:08:50.929Z,35
2018-07-08T10:10:50.477Z,35
2018-07-08T10:12:50.794Z,34
2018-07-08T10:14:50.263Z,34
2018-07-08T10:16:50.565Z,32
2018-07-08T10:18:51.097Z,34
2018-07-08T10:20:50.486Z,34
2018-07-08T10:22:50.666Z,34
2018-07-08T10:24:50.467Z,34
2018-07-08T10:26:50.466Z,34
2018-07-08T10:28:50.732Z,34
2018-07-08T10:30:50.073Z,34
2018-07-08T10:32:50.303Z,34
2018-07-08T10:34:50.638Z,34
2018-07-08T10:36:49.984Z,33
2018-07-08T10:38:50.266Z,32
2018-07-08T10:40:50.483Z,32
2018-07-08T10:42:50.686Z,33
2018-07-08T10:44:50.814Z,34
2018-07-08T10:46:50.158Z,32
2018-07-08T10:48:50.237Z,32
2018-07-08T10:50:50.486Z,32
2018-07-08T10:52:50.675Z,32
2018-07-08T10:54:50.887Z,28
2018-07-08T10:56:50.214Z,27
2018-07-08T10:58:50.336Z,27
2018-07-08T11:00:50.529Z,27
2018-07-08T11:02:50.678Z,27
2018-07-08T11:04:50.028Z,28
2018-07-08T11:06:50.374Z,28
2018-07-08T11:08:50.562Z,28
2018-07-08T11:10:51.257Z,27
2018-07-08T11:12:50.431Z,28
2018-07-08T11:14:50.620Z,27
2018-07-08T11:16:50.902Z,27
2018-07-08T11:18:50.085Z,28
2018-07-08T11:20:50.557Z,29
2018-07-08T11:22:50.784Z,27
2018-07-08T11:24:50.086Z,27
2018-07-08T11:26:50.405Z,27
2018-07-08T11:28:50.704Z,26
2018-07-08T11:30:50.828Z,27
2018-07-08T11:32:50.165Z,28
2018-07-08T11:34:50.548Z,27
2018-07-08T11:36:50.777Z,27
2018-07-08T11:38:50.045Z,28
2018-07-08T11:40:50.195Z,28
2018-07-08T11:42:50.646Z,28
2018-07-08T11:44:50.818Z,28
2018-07-08T11:46:50.218Z,28
2018-07-08T11:48:50.342Z,28
2018-07-08T11:50:50.477Z,29
2018-07-08T11:52:50.664Z,29
2018-07-08T11:54:50.834Z,29
2018-07-08T11:56:50.165Z,29
2018-07-08T11:58:50.357Z,29
2018-07-08T12:00:50.485Z,30
2018-07-08T12:02:50.642Z,30
2018-07-08T12:04:50.216Z,31
2018-07-08T12:06:50.476Z,31
2018-07-08T12:08:50.952Z,30
2018-07-08T12:10:50.176Z,30
2018-07-08T12:12:50.421Z,30
2018-07-08T12:14:50.485Z,30
2018-07-08T12:16:50.795Z,30
2018-07-08T12:18:50.889Z,30
2018-07-08T12:20:50.149Z,30
2018-07-08T12:22:50.257Z,30
2018-07-08T12:24:50.365Z,30
2018-07-08T12:26:50.593Z,32
2018-07-08T12:28:50.682Z,32
2018-07-08T12:30:50.913Z,32
2018-07-08T12:32:50.049Z,32
2018-07-08T12:34:50.336Z,32
2018-07-08T12:36:51.124Z,33
2018-07-08T12:38:50.328Z,33
2018-07-08T12:40:50.515Z,33
2018-07-08T12:42:50.603Z,33
2018-07-08T12:44:51.571Z,33
2018-07-08T12:46:49.999Z,33
2018-07-08T12:48:50.124Z,33
2018-07-08T12:50:50.281Z,33
2018-07-08T12:52:50.388Z,33
2018-07-08T12:54:50.439Z,33
2018-07-08T12:56:50.740Z,33
2018-07-08T12:58:51.078Z,34
2018-07-08T13:00:50.260Z,33
2018-07-08T13:02:50.336Z,33
2018-07-08T13:04:50.748Z,34
2018-07-08T13:06:50.137Z,34
2018-07-08T13:08:50.267Z,34
2018-07-08T13:10:50.607Z,34
2018-07-08T13:12:50.746Z,34
2018-07-08T13:14:50.842Z,34
2018-07-08T13:16:50.185Z,34
2018-07-08T13:18:50.455Z,34
2018-07-08T13:20:50.591Z,34
2018-07-08T13:22:50.857Z,34
2018-07-08T13:24:50.072Z,34
2018-07-08T13:26:50.382Z,34
2018-07-08T13:28:50.496Z,34
2018-07-08T13:30:50.655Z,35
2018-07-08T13:32:50.760Z,35
2018-07-08T13:34:50.204Z,35
2018-07-08T13:36:50.579Z,35
2018-07-08T13:38:51.143Z,35
2018-07-08T13:40:50.406Z,35
2018-07-08T13:42:50.594Z,35
2018-07-08T13:44:50.794Z,34
2018-07-08T13:46:50.066Z,34
2018-07-08T13:48:50.141Z,34
2018-07-08T13:50:50.311Z,34
2018-07-08T13:52:50.611Z,34
2018-07-08T13:54:50.707Z,34
2018-07-08T13:56:50.013Z,35
2018-07-08T13:58:50.136Z,35
2018-07-08T14:00:50.364Z,34
2018-07-08T14:02:50.487Z,34
2018-07-08T14:04:50.764Z,35
2018-07-08T14:06:50.081Z,35
2018-07-08T14:08:50.208Z,34
2018-07-08T14:10:50.548Z,34
2018-07-08T14:12:50.874Z,34
2018-07-08T14:14:50.342Z,34
2018-07-08T14:16:50.650Z,34
2018-07-08T14:18:50.747Z,34
2018-07-08T14:20:51.859Z,35
2018-07-08T14:22:50.140Z,35
2018-07-08T14:24:50.213Z,35
2018-07-08T14:26:50.566Z,34
2018-07-08T14:28:50.663Z,34
2018-07-08T14:30:50.802Z,35
2018-07-08T14:32:50.077Z,35
2018-07-08T14:34:51.129Z,35
2018-07-08T14:36:50.500Z,34
2018-07-08T14:38:50.675Z,35
2018-07-08T14:40:51.348Z,35
2018-07-08T14:42:50.434Z,34
2018-07-08T14:44:50.578Z,34
2018-07-08T14:46:50.836Z,34
2018-07-08T14:48:50.038Z,34
2018-07-08T14:50:50.215Z,34
2018-07-08T14:52:50.369Z,33
2018-07-08T14:54:50.481Z,33
2018-07-08T14:56:50.807Z,33
2018-07-08T14:58:50.940Z,34
2018-07-08T15:00:50.136Z,33
2018-07-08T15:02:50.373Z,34
2018-07-08T15:04:51.322Z,34
2018-07-08T15:06:50.818Z,34
2018-07-08T15:08:49.999Z,33
2018-07-08T15:10:50.293Z,33
2018-07-08T15:12:50.503Z,33
2018-07-08T15:14:50.593Z,33
2018-07-08T15:16:50.884Z,33
2018-07-08T15:18:49.968Z,33
2018-07-08T15:20:50.427Z,33
2018-07-08T15:22:50.727Z,33
2018-07-08T15:24:50.886Z,33
2018-07-08T15:26:50.234Z,33
2018-07-08T15:28:50.371Z,33
2018-07-08T15:30:50.712Z,33
2018-07-08T15:32:51.147Z,33
2018-07-08T15:34:50.554Z,33
2018-07-08T15:36:50.987Z,34
2018-07-08T15:38:50.189Z,33
2018-07-08T15:40:50.348Z,33
2018-07-08T15:42:50.468Z,33
2018-07-08T15:44:50.610Z,33
2018-07-08T15:46:51.185Z,32
2018-07-08T15:48:50.430Z,32
2018-07-08T15:50:50.707Z,32
2018-07-08T15:52:50.007Z,32
2018-07-08T15:54:50.280Z,33
2018-07-08T15:56:50.598Z,32
2018-07-08T15:58:50.758Z,32
2018-07-08T16:00:50.999Z,32
2018-07-08T16:02:50.164Z,32
2018-07-08T16:04:50.856Z,32
2018-07-08T16:06:50.237Z,32
2018-07-08T16:08:50.382Z,32
2018-07-08T16:10:50.505Z,32
2018-07-08T16:12:50.701Z,32
2018-07-08T16:14:50.890Z,32
2018-07-08T16:16:50.247Z,32
2018-07-08T16:18:51.152Z,33
2018-07-08T16:20:50.378Z,33
2018-07-08T16:22:50.537Z,32
2018-07-08T16:24:51.753Z,32
2018-07-08T16:26:50.239Z,32
2018-07-08T16:28:50.424Z,32
2018-07-08T16:30:50.544Z,32
2018-07-08T16:32:50.680Z,32
2018-07-08T16:34:50.057Z,32
2018-07-08T16:36:50.323Z,32
2018-07-08T16:38:50.637Z,32
2018-07-08T16:40:50.689Z,32
2018-07-08T16:42:50.920Z,32
2018-07-08T16:44:50.070Z,32
2018-07-08T16:46:50.448Z,30.0
2018-07-08T16:48:50.577Z,30.1
2018-07-08T16:50:50.670Z,28.8
2018-07-08T16:52:50.870Z,29.1
2018-07-08T16:54:49.979Z,29.4
2018-07-08T16:56:50.218Z,33
2018-07-08T16:58:50.375Z,33
2018-07-08T17:00:50.537Z,32
2018-07-08T17:02:50.743Z,33
2018-07-08T17:04:50.033Z,33
2018-07-08T17:06:50.356Z,33
2018-07-08T17:08:50.523Z,33
2018-07-08T17:10:50.849Z,33
2018-07-08T17:12:49.990Z,33
2018-07-08T17:14:50.160Z,34
2018-07-08T17:16:50.367Z,34
2018-07-08T17:18:50.506Z,34
2018-07-08T17:20:50.584Z,33
2018-07-08T17:22:50.908Z,33
2018-07-08T17:24:50.058Z,33
2018-07-08T17:26:50.388Z,33
2018-07-08T17:28:50.509Z,33
2018-07-08T17:30:50.607Z,32.6
2018-07-08T17:32:51.048Z,32.8
2018-07-08T17:34:50.555Z,35.6
2018-07-08T17:36:50.783Z,35.0
2018-07-08T17:38:50.904Z,35.8
2018-07-08T17:40:50.385Z,35.7
2018-07-08T17:42:50.470Z,36.0
2018-07-08T17:44:50.588Z,36.6
2018-07-08T17:46:50.849Z,36.4
2018-07-08T17:48:50.015Z,37.1
2018-07-08T17:50:50.260Z,37.4
2018-07-08T17:52:50.834Z,38.1
2018-07-08T17:54:50.237Z,38.8
2018-07-08T17:56:50.476Z,38.3
2018-07-08T17:58:50.540Z,38.5
2018-07-08T18:00:50.679Z,39.4
2018-07-08T18:02:50.875Z,39.8
2018-07-08T18:04:50.403Z,40.0
2018-07-08T18:06:50.674Z,40.5
2018-07-08T18:08:51.073Z,40.8
2018-07-08T18:10:50.248Z,41.4
2018-07-08T18:12:50.380Z,41.1
2018-07-08T18:14:50.614Z,41.1
2018-07-08T18:16:50.868Z,41.0
2018-07-08T18:18:50.082Z,40.5
2018-07-08T18:20:50.189Z,40.7
2018-07-08T18:22:50.516Z,41.6
2018-07-08T18:24:50.677Z,40.7
2018-07-08T18:26:50.085Z,40.7
2018-07-08T18:28:50.214Z,41.3
2018-07-08T18:30:50.364Z,41.8
2018-07-08T18:32:50.552Z,42.1
2018-07-08T18:34:50.151Z,41.6
2018-07-08T18:36:50.552Z,41.6
2018-07-08T18:38:50.799Z,41.1
2018-07-08T18:40:49.978Z,42.6
2018-07-08T18:42:50.127Z,43.6
2018-07-08T18:44:50.274Z,44.1
2018-07-08T18:46:50.651Z,44.0
2018-07-08T18:48:50.944Z,44.5
2018-07-08T18:50:50.098Z,43.9
2018-07-08T18:52:50.262Z,44.0
2018-07-08T18:54:50.462Z,44.4
2018-07-08T18:56:50.777Z,45.0
2018-07-08T18:58:49.962Z,45.4
2018-07-08T19:00:50.060Z,46.7
2018-07-08T19:02:50.248Z,46.4
2018-07-08T19:04:50.745Z,47.8
2018-07-08T19:06:50.086Z,47.7
2018-07-08T19:08:50.263Z,49.3
2018-07-08T19:10:50.423Z,48.2
2018-07-08T19:12:50.588Z,48.8
2018-07-08T19:14:50.842Z,49.1
2018-07-08T19:16:50.180Z,48.7
2018-07-08T19:18:50.245Z,49.4
2018-07-08T19:20:50.328Z,48.9
2018-07-08T19:22:50.489Z,51.3
2018-07-08T19:24:50.647Z,50.4
2018-07-08T19:26:49.963Z,50.8
2018-07-08T19:28:50.084Z,50.8
2018-07-08T19:30:50.288Z,50.9
2018-07-08T19:32:50.454Z,50.7
2018-07-08T19:34:50.022Z,50.7
2018-07-08T19:36:50.335Z,50.4
2018-07-08T19:38:50.505Z,50.6
2018-07-08T19:40:50.637Z,50.7
2018-07-08T19:42:50.011Z,51.0
2018-07-08T19:44:50.231Z,51.5
2018-07-08T19:46:50.617Z,52.4
2018-07-08T19:48:50.817Z,51.9
2018-07-08T19:50:49.964Z,52.0
2018-07-08T19:52:50.229Z,52.1
2018-07-08T19:54:50.443Z,52.6
2018-07-08T19:56:50.759Z,52.9
2018-07-08T19:58:50.974Z,53.8
2018-07-08T20:00:50.231Z,54.5
2018-07-08T20:02:50.351Z,55.3
2018-07-08T20:04:50.774Z,55.1
2018-07-08T20:06:50.185Z,57.8
2018-07-08T20:08:50.433Z,56.4
2018-07-08T20:10:50.591Z,56.6
2018-07-08T20:12:50.823Z,56.6
2018-07-08T20:14:50.042Z,56.3
2018-07-08T20:16:50.323Z,56.7
2018-07-08T20:18:50.586Z,58.5
2018-07-08T20:20:51.278Z,59.4
2018-07-08T20:22:50.482Z,59.2
2018-07-08T20:24:50.588Z,58.7
2018-07-08T20:26:50.049Z,59.3
2018-07-08T20:28:50.253Z,59.9
2018-07-08T20:30:50.465Z,60.5
2018-07-08T20:32:50.759Z,60.6
2018-07-08T20:34:49.986Z,60.2
2018-07-08T20:36:50.262Z,59.9
2018-07-08T20:38:50.401Z,60.4
2018-07-08T20:40:50.522Z,60.1
2018-07-08T20:42:50.712Z,60.7
2018-07-08T20:44:50.819Z,61.5
2018-07-08T20:46:50.066Z,63.2
2018-07-08T20:48:50.562Z,62.8
2018-07-08T20:50:50.757Z,63.2
2018-07-08T20:52:50.913Z,64.1
2018-07-08T20:54:50.224Z,63.8
2018-07-08T20:56:50.525Z,64.5
2018-07-08T20:58:50.698Z,65.2
2018-07-08T21:00:50.857Z,64.3
2018-07-08T21:02:50.017Z,64.0
2018-07-08T21:04:50.312Z,63.7
2018-07-08T21:06:50.660Z,64.1
2018-07-08T21:08:50.839Z,64.3
2018-07-08T21:10:50.101Z,65.0
2018-07-08T21:12:50.370Z,66.1
2018-07-08T21:14:50.485Z,66.8
2018-07-08T21:16:50.899Z,66.6
2018-07-08T21:18:50.658Z,66.7
2018-07-08T21:20:50.776Z,66.9
2018-07-08T21:22:50.015Z,67.2
2018-07-08T21:24:51.073Z,68.2
2018-07-08T21:26:50.427Z,68.0
2018-07-08T21:28:50.645Z,67.1
2018-07-08T21:30:50.793Z,67.9
2018-07-08T21:32:50.080Z,69.1
2018-07-08T21:34:50.595Z,68.4
2018-07-08T21:36:51.302Z,69.1
2018-07-08T21:38:50.545Z,68.7
2018-07-08T21:40:50.676Z,68.0
2018-07-08T21:42:50.760Z,67.9
2018-07-08T21:44:50.934Z,70.1
2018-07-08T21:46:50.275Z,68.8
2018-07-08T21:48:50.417Z,68.6
2018-07-08T21:50:50.503Z,68.3
2018-07-08T21:52:50.774Z,68.9
2018-07-08T21:54:50.038Z,68.6
2018-07-08T21:56:50.436Z,69.5
2018-07-08T21:58:50.521Z,70.7
2018-07-08T22:00:50.766Z,71.2
2018-07-08T22:02:50.085Z,69.8
2018-07-08T22:04:50.486Z,68.7
2018-07-08T22:06:50.018Z,68.9
2018-07-08T22:08:50.215Z,69.3
2018-07-08T22:10:50.382Z,68.8
2018-07-08T22:12:50.575Z,68.9
2018-07-08T22:14:50.949Z,68.9
2018-07-08T22:16:50.394Z,70.3
2018-07-08T22:18:50.544Z,70.7
2018-07-08T22:20:50.627Z,68.5
2018-07-08T22:22:50.964Z,68.4
2018-07-08T22:24:50.139Z,69.4
2018-07-08T22:26:50.415Z,68.9
2018-07-08T22:28:50.633Z,70.4
2018-07-08T22:30:50.816Z,70.1
2018-07-08T22:32:50.010Z,70.1
2018-07-08T22:34:50.345Z,70.3
2018-07-08T22:36:50.610Z,70.7
2018-07-08T22:38:50.786Z,70.9
2018-07-08T22:40:50.057Z,71.6
2018-07-08T22:42:50.399Z,70.9
2018-07-08T22:44:50.469Z,72.8
2018-07-08T22:46:50.900Z,72.6
2018-07-08T22:48:49.978Z,71.3
2018-07-08T22:50:50.211Z,71.0
2018-07-08T22:52:50.396Z,70.7
2018-07-08T22:54:50.493Z,72.0
2018-07-08T22:56:50.870Z,73.0
2018-07-08T22:58:49.989Z,72.6
2018-07-08T23:00:50.148Z,72.7
2018-07-08T23:02:50.330Z,71.7
2018-07-08T23:04:50.796Z,72.5
2018-07-08T23:06:50.132Z,75.2
2018-07-08T23:08:50.322Z,75.9
2018-07-08T23:10:50.455Z,73.4
2018-07-08T23:12:50.588Z,74.0
2018-07-08T23:14:50.787Z,74.7
2018-07-08T23:16:50.090Z,74.2
2018-07-08T23:18:50.307Z,75.2
2018-07-08T23:20:50.475Z,76.7
2018-07-08T23:22:50.611Z,76.8
2018-07-08T23:24:50.566Z,75.2
2018-07-08T23:26:50.819Z,75.3
2018-07-08T23:28:50.029Z,76.0
2018-07-08T23:30:50.190Z,76.6
2018-07-08T23:32:50.405Z,76.1
2018-07-08T23:34:50.017Z,76.7
2018-07-08T23:36:50.297Z,76.9
2018-07-08T23:38:50.371Z,76.7
2018-07-08T23:40:50.553Z,78.5
2018-07-08T23:42:50.686Z,78.0
2018-07-08T23:44:50.811Z,77.8
2018-07-08T23:46:50.250Z,79.0
2018-07-08T23:48:50.354Z,79.7
2018-07-08T23:50:50.498Z,79.7
2018-07-08T23:52:50.650Z,79.1
2018-07-08T23:54:50.760Z,79.8
2018-07-08T23:56:50.283Z,80.7
2018-07-08T23:58:50.446Z,79.5
